Time;durP1;ratioP1;P1;durP2;ratioP2;P2;SDS_P1;SDS_P2;PMS_P1;PMS_P2;Temp;Humidity;BMP_temperature;BMP_pressure;BME280_temperature;BME280_humidity;BME280_pressure;Samples;Min_cycle;Max_cycle;Signal;HPM_P1;HPM_P2
2023/03/26 00:01:07;;;;;;;13.23;12.53;;;9.10;99.90;;;;;;4897901;29;20495;-79
2023/03/26 00:03:37;;;;;;;12.27;11.67;;;9.00;99.90;;;;;;4896660;29;20459;-79
2023/03/26 00:06:06;;;;;;;13.60;12.63;;;9.00;99.90;;;;;;4897749;29;20462;-78
2023/03/26 00:08:33;;;;;;;12.90;12.30;;;9.00;99.90;;;;;;4897727;29;20515;-79
2023/03/26 00:11:00;;;;;;;13.13;12.40;;;9.00;99.90;;;;;;4897648;29;20471;-78
2023/03/26 00:13:27;;;;;;;11.93;11.43;;;8.90;99.90;;;;;;4897808;29;20483;-79
2023/03/26 00:15:54;;;;;;;11.70;11.20;;;8.90;99.90;;;;;;4897679;29;20467;-78
2023/03/26 00:18:23;;;;;;;12.60;12.00;;;8.80;99.90;;;;;;4897507;29;20456;-78
2023/03/26 00:20:51;;;;;;;12.77;12.07;;;8.80;99.90;;;;;;4897626;29;20467;-79
2023/03/26 00:23:18;;;;;;;13.23;12.53;;;8.70;99.90;;;;;;4897511;29;20459;-78
2023/03/26 00:25:49;;;;;;;13.20;12.67;;;8.70;99.90;;;;;;4897440;29;20479;-77
2023/03/26 00:28:16;;;;;;;12.80;12.30;;;8.70;99.90;;;;;;4897364;29;20499;-78
2023/03/26 00:30:43;;;;;;;12.00;11.50;;;8.80;99.90;;;;;;4897362;29;20466;-78
2023/03/26 00:33:10;;;;;;;12.17;11.77;;;8.80;99.90;;;;;;4897339;29;20459;-79
2023/03/26 00:35:42;;;;;;;11.70;11.30;;;8.90;99.90;;;;;;4897341;29;20463;-78
2023/03/26 00:38:10;;;;;;;12.80;12.10;;;8.90;99.90;;;;;;4897399;29;20474;-79
2023/03/26 00:40:36;;;;;;;13.20;12.33;;;8.80;99.90;;;;;;4897213;29;20466;-77
2023/03/26 00:43:09;;;;;;;12.67;12.17;;;8.80;99.90;;;;;;4897197;29;20463;-77
2023/03/26 00:45:35;;;;;;;12.03;11.60;;;8.80;99.90;;;;;;4897182;29;20688;-79
2023/03/26 00:48:02;;;;;;;12.13;11.60;;;8.80;99.90;;;;;;4896752;29;20843;-79
2023/03/26 00:50:29;;;;;;;12.47;11.67;;;8.80;99.90;;;;;;4896696;29;21286;-79
2023/03/26 00:52:57;;;;;;;12.20;11.70;;;8.80;99.90;;;;;;4897074;29;20892;-79
2023/03/26 00:55:25;;;;;;;14.97;13.53;;;8.80;99.90;;;;;;4897120;29;20787;-79
2023/03/26 00:57:54;;;;;;;12.57;11.90;;;8.80;99.90;;;;;;4896993;29;20822;-78
2023/03/26 01:00:30;;;;;;;12.00;11.23;;;8.80;99.90;;;;;;4896822;29;20459;-79
2023/03/26 01:02:57;;;;;;;12.53;11.57;;;8.80;99.90;;;;;;4896703;29;20450;-79
2023/03/26 01:05:43;;;;;;;12.07;11.27;;;8.80;99.90;;;;;;4896944;29;20459;-80
2023/03/26 01:08:27;;;;;;;12.90;11.90;;;8.80;99.90;;;;;;4896867;29;20519;-77
2023/03/26 01:11:03;;;;;;;12.03;11.40;;;8.80;99.90;;;;;;4896775;29;20455;-77
2023/03/26 01:13:33;;;;;;;11.93;11.33;;;8.80;99.90;;;;;;4896438;29;20518;-76
2023/03/26 01:16:00;;;;;;;12.03;11.33;;;8.80;99.90;;;;;;4896317;29;20451;-75
2023/03/26 01:18:32;;;;;;;12.00;11.40;;;8.90;99.90;;;;;;4896402;29;20451;-76
2023/03/26 01:21:03;;;;;;;12.20;11.60;;;8.80;99.90;;;;;;4896419;29;20843;-77
2023/03/26 01:23:39;;;;;;;12.60;11.80;;;8.80;99.90;;;;;;4896433;29;20462;-76
2023/03/26 01:26:13;;;;;;;11.73;11.23;;;8.80;99.90;;;;;;4896478;29;20466;-76
2023/03/26 01:28:41;;;;;;;12.80;12.20;;;8.80;99.90;;;;;;4896152;29;21049;-77
2023/03/26 01:31:16;;;;;;;12.30;11.67;;;8.80;99.90;;;;;;4896162;29;20947;-75
2023/03/26 01:33:48;;;;;;;12.53;12.03;;;8.90;99.90;;;;;;4896269;29;20459;-76
2023/03/26 01:36:20;;;;;;;11.43;10.80;;;8.90;99.90;;;;;;4896147;29;20482;-75
2023/03/26 01:38:53;;;;;;;12.27;11.67;;;8.90;99.90;;;;;;4896188;29;20455;-76
2023/03/26 01:41:24;;;;;;;12.67;11.97;;;8.90;99.90;;;;;;4896242;29;20459;-76
2023/03/26 01:43:57;;;;;;;12.00;11.30;;;8.90;99.90;;;;;;4896316;29;20455;-77
2023/03/26 01:46:25;;;;;;;12.17;11.67;;;9.00;99.90;;;;;;4896109;29;20459;-76
2023/03/26 01:48:52;;;;;;;12.13;11.63;;;9.00;99.90;;;;;;4896049;29;20498;-78
2023/03/26 01:51:27;;;;;;;12.60;11.70;;;9.00;99.90;;;;;;4896229;29;20455;-80
2023/03/26 01:53:55;;;;;;;12.53;11.83;;;9.00;99.90;;;;;;4896247;29;20486;-79
2023/03/26 01:56:29;;;;;;;13.00;12.30;;;9.00;99.90;;;;;;4896140;29;20854;-78
2023/03/26 01:59:09;;;;;;;12.27;11.70;;;9.00;99.90;;;;;;4895940;29;20551;-79
2023/03/26 02:01:44;;;;;;;11.33;10.90;;;9.10;99.90;;;;;;4895797;29;20507;-79
2023/03/26 02:04:20;;;;;;;11.70;11.20;;;9.10;99.90;;;;;;4895917;29;20522;-78
2023/03/26 02:06:53;;;;;;;12.37;11.67;;;9.10;99.90;;;;;;4894791;29;20474;-78
2023/03/26 02:09:24;;;;;;;11.80;11.20;;;9.10;99.90;;;;;;4893662;29;20451;-78
2023/03/26 02:11:54;;;;;;;11.60;11.10;;;9.10;99.90;;;;;;4873110;29;20468;-79
2023/03/26 02:14:21;;;;;;;11.50;10.90;;;9.10;99.90;;;;;;4882171;29;20451;-77
2023/03/26 02:16:50;;;;;;;12.03;11.33;;;9.10;99.90;;;;;;4895365;29;20463;-77
2023/03/26 02:19:20;;;;;;;11.40;10.77;;;9.20;99.90;;;;;;4895208;29;21048;-78
2023/03/26 02:21:50;;;;;;;11.40;10.90;;;9.20;99.90;;;;;;4895420;29;20884;-78
2023/03/26 02:24:17;;;;;;;11.47;10.87;;;9.20;99.90;;;;;;4895225;29;20459;-78
2023/03/26 02:26:44;;;;;;;12.73;12.03;;;9.20;99.90;;;;;;4895080;29;20462;-77
2023/03/26 02:29:18;;;;;;;12.60;11.90;;;9.20;99.90;;;;;;4895578;29;20514;-78
2023/03/26 02:31:45;;;;;;;12.43;11.87;;;9.20;99.90;;;;;;4895346;29;20469;-77
2023/03/26 02:34:11;;;;;;;11.43;11.03;;;9.20;99.90;;;;;;4895284;29;20467;-77
2023/03/26 02:36:41;;;;;;;12.63;11.63;;;9.30;99.90;;;;;;4895387;29;20870;-76
2023/03/26 02:39:09;;;;;;;11.50;11.00;;;9.30;99.90;;;;;;4895427;29;20912;-77
2023/03/26 02:41:36;;;;;;;12.33;11.40;;;9.20;99.90;;;;;;4895294;29;20464;-76
2023/03/26 02:44:04;;;;;;;11.83;11.23;;;9.30;99.90;;;;;;4895181;29;20470;-76
2023/03/26 02:46:32;;;;;;;11.67;11.07;;;9.20;99.90;;;;;;4894936;29;20542;-76
2023/03/26 02:48:59;;;;;;;11.80;11.20;;;9.30;99.90;;;;;;4894787;29;20499;-76
2023/03/26 02:51:26;;;;;;;11.90;11.30;;;9.30;99.90;;;;;;4894976;29;20939;-76
2023/03/26 02:53:53;;;;;;;10.77;10.33;;;9.20;99.90;;;;;;4895161;29;20481;-76
2023/03/26 02:56:20;;;;;;;12.73;11.80;;;9.20;99.90;;;;;;4895208;29;20923;-76
2023/03/26 02:58:47;;;;;;;11.33;10.73;;;9.20;99.90;;;;;;4894757;29;20948;-76
2023/03/26 03:01:17;;;;;;;12.07;11.50;;;9.20;99.90;;;;;;4894856;29;20584;-79
2023/03/26 03:03:47;;;;;;;11.20;10.50;;;9.20;99.90;;;;;;4892539;29;20881;-79
2023/03/26 03:06:15;;;;;;;11.57;11.07;;;9.20;99.90;;;;;;4894765;29;20468;-79
2023/03/26 03:08:44;;;;;;;13.33;12.53;;;9.20;99.90;;;;;;4894865;29;20484;-78
2023/03/26 03:11:13;;;;;;;12.17;11.30;;;9.30;99.90;;;;;;4894908;29;20837;-78
2023/03/26 03:13:40;;;;;;;12.27;11.33;;;9.30;99.90;;;;;;4894654;29;20541;-79
2023/03/26 03:16:08;;;;;;;11.43;10.93;;;9.30;99.90;;;;;;4895164;29;20451;-80
2023/03/26 03:18:35;;;;;;;11.27;10.37;;;9.40;99.90;;;;;;4894282;29;20455;-78
2023/03/26 03:21:03;;;;;;;11.20;10.60;;;9.40;99.90;;;;;;4893887;29;20530;-78
2023/03/26 03:23:30;;;;;;;12.00;11.30;;;9.40;99.90;;;;;;4894578;29;20462;-82
2023/03/26 03:25:57;;;;;;;12.20;11.60;;;9.40;99.90;;;;;;4894422;29;20496;-82
2023/03/26 03:28:24;;;;;;;12.13;11.20;;;9.50;99.90;;;;;;4894606;29;20869;-78
2023/03/26 03:30:52;;;;;;;11.50;10.90;;;9.50;99.90;;;;;;4894408;29;20519;-78
2023/03/26 03:33:19;;;;;;;12.03;11.10;;;9.50;99.90;;;;;;4903669;29;20466;-78
2023/03/26 03:35:46;;;;;;;11.60;10.93;;;9.50;99.90;;;;;;4902520;29;20701;-79
2023/03/26 03:38:15;;;;;;;11.53;10.80;;;9.50;99.90;;;;;;4906541;29;20458;-77
2023/03/26 03:40:42;;;;;;;11.27;10.67;;;9.50;99.90;;;;;;4902846;29;20455;-80
2023/03/26 03:43:08;;;;;;;11.63;11.10;;;9.50;99.90;;;;;;4905626;29;20465;-79
2023/03/26 03:45:35;;;;;;;12.70;11.77;;;9.50;99.90;;;;;;4905532;29;20454;-78
2023/03/26 03:48:02;;;;;;;12.10;11.30;;;9.50;99.90;;;;;;4905225;29;20864;-79
2023/03/26 03:50:30;;;;;;;12.13;11.27;;;9.50;99.90;;;;;;4906058;29;20474;-81
2023/03/26 03:52:57;;;;;;;11.43;10.83;;;9.50;99.90;;;;;;4907211;29;20473;-80
2023/03/26 03:55:26;;;;;;;12.20;11.33;;;9.50;99.90;;;;;;4905879;29;20818;-79
2023/03/26 03:57:53;;;;;;;12.37;11.43;;;9.50;99.90;;;;;;4905750;29;20452;-79
2023/03/26 04:00:21;;;;;;;12.43;11.60;;;9.40;99.90;;;;;;4907295;29;20459;-76
2023/03/26 04:02:48;;;;;;;12.47;11.20;;;9.50;99.90;;;;;;4906001;29;20455;-78
2023/03/26 04:05:14;;;;;;;11.70;11.00;;;9.50;99.90;;;;;;4905275;29;20547;-77
2023/03/26 04:07:41;;;;;;;12.33;11.73;;;9.40;99.90;;;;;;4906835;29;20815;-79
2023/03/26 04:10:09;;;;;;;12.03;11.43;;;9.40;99.90;;;;;;4905928;29;20459;-80
2023/03/26 04:12:37;;;;;;;12.23;11.70;;;9.40;99.90;;;;;;4905650;29;20458;-79
2023/03/26 04:15:05;;;;;;;12.77;11.80;;;9.40;99.90;;;;;;4901980;29;20473;-79
2023/03/26 04:17:31;;;;;;;12.33;11.50;;;9.30;99.90;;;;;;4908391;29;20450;-81
2023/03/26 04:20:04;;;;;;;12.20;11.40;;;9.30;99.90;;;;;;4904383;29;20467;-77
2023/03/26 04:22:33;;;;;;;13.40;12.40;;;9.30;99.90;;;;;;4902122;29;20457;-78
2023/03/26 04:25:01;;;;;;;12.10;11.50;;;9.30;99.90;;;;;;4906530;29;20559;-78
2023/03/26 04:27:31;;;;;;;12.30;11.70;;;9.20;99.90;;;;;;4902548;29;20991;-78
2023/03/26 04:30:01;;;;;;;12.83;12.13;;;9.20;99.90;;;;;;4904680;29;20498;-80
2023/03/26 04:32:32;;;;;;;13.47;12.77;;;9.20;99.90;;;;;;4902591;29;20452;-81
2023/03/26 04:35:02;;;;;;;13.63;12.50;;;9.20;99.90;;;;;;4904510;29;20865;-79
2023/03/26 04:37:33;;;;;;;13.23;12.57;;;9.20;99.90;;;;;;4902592;29;21037;-80
2023/03/26 04:39:59;;;;;;;12.63;11.93;;;9.20;99.90;;;;;;4904452;29;20456;-78
2023/03/26 04:42:27;;;;;;;13.43;12.47;;;9.20;99.90;;;;;;4901973;29;20455;-78
2023/03/26 04:44:54;;;;;;;12.73;12.17;;;9.20;99.90;;;;;;4905941;29;20835;-79
2023/03/26 04:47:22;;;;;;;12.50;11.83;;;9.10;99.90;;;;;;4904034;29;20530;-79
2023/03/26 04:49:49;;;;;;;13.17;12.13;;;9.10;99.90;;;;;;4899106;29;20502;-78
2023/03/26 04:52:16;;;;;;;13.60;12.80;;;9.10;99.90;;;;;;4897160;29;20563;-78
2023/03/26 04:54:44;;;;;;;12.30;11.60;;;9.10;99.90;;;;;;4900829;29;20510;-77
2023/03/26 04:57:17;;;;;;;13.57;12.50;;;9.10;99.90;;;;;;4902509;29;20814;-79
2023/03/26 04:59:44;;;;;;;12.70;11.70;;;9.10;99.90;;;;;;4902416;29;20816;-79
2023/03/26 05:02:11;;;;;;;12.80;12.10;;;9.00;99.90;;;;;;4903910;29;20466;-79
2023/03/26 05:04:42;;;;;;;11.50;11.00;;;9.10;99.90;;;;;;4903979;29;20458;-79
2023/03/26 05:07:11;;;;;;;12.23;11.53;;;9.00;99.90;;;;;;4904274;29;21207;-76
2023/03/26 05:09:38;;;;;;;13.07;12.20;;;9.00;99.90;;;;;;4903983;29;20851;-76
2023/03/26 05:12:05;;;;;;;12.20;11.40;;;8.90;99.90;;;;;;4912277;29;20459;-77
2023/03/26 05:14:31;;;;;;;12.57;11.67;;;8.90;99.90;;;;;;4914929;29;20455;-77
2023/03/26 05:16:58;;;;;;;12.83;11.87;;;8.90;99.90;;;;;;4914908;29;20466;-77
2023/03/26 05:19:25;;;;;;;13.23;12.63;;;8.90;99.90;;;;;;4915177;29;20462;-78
2023/03/26 05:21:53;;;;;;;13.57;12.80;;;8.90;99.90;;;;;;4914946;29;20461;-78
2023/03/26 05:24:20;;;;;;;13.40;12.50;;;8.90;99.90;;;;;;4915006;29;20458;-78
2023/03/26 05:26:46;;;;;;;13.00;12.17;;;8.90;99.90;;;;;;4904421;29;20455;-78
2023/03/26 05:29:16;;;;;;;13.33;12.30;;;9.00;99.90;;;;;;4895922;29;21007;-78
2023/03/26 05:31:44;;;;;;;11.87;11.20;;;9.00;99.90;;;;;;4895744;29;21007;-78
2023/03/26 05:34:10;;;;;;;11.57;10.87;;;9.10;99.90;;;;;;4895919;29;20518;-77
2023/03/26 05:36:37;;;;;;;11.13;10.40;;;9.10;99.90;;;;;;4895992;29;20465;-77
2023/03/26 05:39:05;;;;;;;11.10;10.40;;;9.10;99.90;;;;;;4895759;29;20942;-78
2023/03/26 05:41:32;;;;;;;11.73;11.03;;;9.10;99.90;;;;;;4895925;29;20466;-78
2023/03/26 05:43:58;;;;;;;12.00;11.40;;;9.10;99.90;;;;;;4895779;29;20462;-77
2023/03/26 05:46:26;;;;;;;11.23;10.73;;;9.20;99.90;;;;;;4895498;29;20486;-77
2023/03/26 05:48:53;;;;;;;10.77;10.37;;;9.20;99.90;;;;;;4895561;29;20503;-76
2023/03/26 05:51:22;;;;;;;12.23;11.43;;;9.20;99.90;;;;;;4895522;29;20462;-77
2023/03/26 05:53:49;;;;;;;11.80;11.20;;;9.20;99.90;;;;;;4895519;29;20466;-78
2023/03/26 05:56:17;;;;;;;11.37;10.87;;;9.10;99.90;;;;;;4893033;29;20964;-77
2023/03/26 05:58:43;;;;;;;12.93;12.20;;;9.00;99.90;;;;;;4895115;29;20503;-76
2023/03/26 06:01:15;;;;;;;12.57;11.87;;;9.00;99.90;;;;;;4890985;29;20466;-75
2023/03/26 06:03:43;;;;;;;16.60;15.80;;;8.90;99.90;;;;;;4892194;29;20970;-74
2023/03/26 06:06:14;;;;;;;17.50;16.70;;;8.90;99.90;;;;;;4895074;29;20546;-73
2023/03/26 06:08:41;;;;;;;19.40;18.30;;;8.90;99.90;;;;;;4894683;29;20488;-73
2023/03/26 06:11:09;;;;;;;22.00;20.80;;;8.90;99.90;;;;;;4893090;29;20471;-73
2023/03/26 06:13:37;;;;;;;22.63;21.33;;;8.70;99.90;;;;;;4894896;29;20955;-73
2023/03/26 06:16:04;;;;;;;22.63;21.33;;;8.60;99.90;;;;;;4895073;29;20472;-74
2023/03/26 06:18:30;;;;;;;22.53;21.20;;;8.60;99.90;;;;;;4899216;29;20459;-73
2023/03/26 06:20:57;;;;;;;22.47;21.27;;;8.60;99.90;;;;;;4902084;29;21110;-73
2023/03/26 06:23:24;;;;;;;21.47;19.93;;;8.50;99.90;;;;;;4903699;29;20454;-75
2023/03/26 06:25:51;;;;;;;21.43;19.97;;;8.50;99.90;;;;;;4902098;29;20955;-78
2023/03/26 06:28:17;;;;;;;21.37;20.37;;;8.50;99.90;;;;;;4904014;29;20820;-76
2023/03/26 06:30:45;;;;;;;18.17;17.03;;;8.60;99.90;;;;;;4902964;29;20459;-78
2023/03/26 06:33:12;;;;;;;19.90;18.90;;;8.60;99.90;;;;;;4902416;29;20873;-79
2023/03/26 06:35:39;;;;;;;19.93;18.80;;;8.60;99.90;;;;;;4897467;29;20481;-75
2023/03/26 06:38:06;;;;;;;18.47;17.40;;;8.60;99.90;;;;;;4903134;29;20454;-78
2023/03/26 06:40:34;;;;;;;18.17;16.90;;;8.60;99.90;;;;;;4903936;29;20536;-76
2023/03/26 06:43:00;;;;;;;14.93;14.20;;;8.60;99.90;;;;;;4899878;29;20469;-78
2023/03/26 06:45:27;;;;;;;14.37;13.73;;;8.60;99.90;;;;;;4903090;29;20502;-79
2023/03/26 06:47:55;;;;;;;13.37;12.53;;;8.60;99.90;;;;;;4903949;29;20994;-78
2023/03/26 06:50:22;;;;;;;11.80;11.27;;;8.70;99.90;;;;;;4902436;29;20498;-77
2023/03/26 06:52:49;;;;;;;12.40;11.67;;;8.70;99.90;;;;;;4904788;29;21003;-81
2023/03/26 06:55:16;;;;;;;13.27;12.57;;;8.80;99.90;;;;;;4901918;29;20491;-78
2023/03/26 06:57:44;;;;;;;12.33;11.53;;;8.90;99.90;;;;;;4903627;29;20989;-82
2023/03/26 07:00:12;;;;;;;13.27;12.20;;;9.00;99.90;;;;;;4904460;29;20514;-80
2023/03/26 07:02:39;;;;;;;11.73;11.03;;;9.00;99.90;;;;;;4904088;29;20469;-78
2023/03/26 07:05:07;;;;;;;12.90;12.27;;;9.00;99.90;;;;;;4902585;29;20473;-78
2023/03/26 07:07:34;;;;;;;12.90;12.20;;;9.00;99.90;;;;;;4901743;29;20494;-78
2023/03/26 07:10:01;;;;;;;12.47;11.93;;;8.90;99.90;;;;;;4899552;29;20617;-77
2023/03/26 07:12:27;;;;;;;13.10;12.03;;;8.90;99.90;;;;;;4904049;29;20449;-76
2023/03/26 07:14:54;;;;;;;12.00;11.33;;;8.90;99.90;;;;;;4907504;29;20462;-78
2023/03/26 07:17:21;;;;;;;11.87;11.07;;;9.00;99.90;;;;;;4904735;29;20458;-77
2023/03/26 07:19:47;;;;;;;13.60;11.63;;;9.20;99.90;;;;;;4906470;29;20960;-79
2023/03/26 07:22:21;;;;;;;11.77;11.03;;;9.20;99.90;;;;;;4905412;29;20455;-78
2023/03/26 07:24:49;;;;;;;10.27;9.77;;;9.30;99.90;;;;;;4905466;29;20447;-80
2023/03/26 07:27:33;;;;;;;10.93;10.40;;;9.40;99.90;;;;;;4905266;29;20560;-79
2023/03/26 07:30:07;;;;;;;11.13;10.53;;;9.40;99.90;;;;;;4899769;29;20487;-78
2023/03/26 07:32:42;;;;;;;11.67;10.67;;;9.40;99.90;;;;;;4897854;29;20458;-78
2023/03/26 07:35:15;;;;;;;12.07;11.40;;;9.50;99.90;;;;;;4898117;29;20474;-76
2023/03/26 07:37:55;;;;;;;13.10;12.40;;;9.50;99.90;;;;;;4898010;29;20549;-74
2023/03/26 07:40:41;;;;;;;15.53;14.73;;;9.40;99.90;;;;;;4898028;29;20466;-75
2023/03/26 07:43:20;;;;;;;19.83;18.47;;;9.30;99.90;;;;;;4897806;29;20515;-74
2023/03/26 07:45:47;;;;;;;20.60;19.60;;;9.30;99.90;;;;;;4898669;29;20522;-70
2023/03/26 07:48:18;;;;;;;26.90;25.50;;;9.10;99.90;;;;;;4897361;29;20570;-73
2023/03/26 07:50:46;;;;;;;28.53;27.10;;;9.00;99.90;;;;;;4896636;29;20866;-73
2023/03/26 07:53:15;;;;;;;29.10;27.70;;;8.90;99.90;;;;;;4897274;29;20451;-72
2023/03/26 07:55:50;;;;;;;32.17;30.37;;;8.80;99.90;;;;;;4893924;29;20831;-71
2023/03/26 07:58:30;;;;;;;31.90;30.00;;;8.80;99.90;;;;;;4894513;29;20518;-73
2023/03/26 08:01:03;;;;;;;31.53;29.93;;;8.80;99.90;;;;;;4890634;29;20956;-74
2023/03/26 08:03:50;;;;;;;31.60;29.80;;;8.80;99.90;;;;;;4896863;29;20447;-74
2023/03/26 08:06:25;;;;;;;32.23;30.37;;;8.80;99.90;;;;;;4897119;29;20506;-75
2023/03/26 08:08:59;;;;;;;31.77;29.40;;;8.80;99.90;;;;;;4897389;29;21031;-74
2023/03/26 08:11:34;;;;;;;32.67;30.50;;;8.90;99.90;;;;;;4897330;29;20451;-76
2023/03/26 08:14:17;;;;;;;32.40;30.60;;;8.90;99.90;;;;;;4897126;29;20493;-75
2023/03/26 08:16:51;;;;;;;30.80;28.80;;;8.80;99.90;;;;;;4897121;29;20829;-73
2023/03/26 08:19:40;;;;;;;30.80;29.20;;;8.80;99.90;;;;;;4896608;29;20451;-73
2023/03/26 08:22:12;;;;;;;31.03;29.47;;;8.80;99.90;;;;;;4895128;29;20459;-74
2023/03/26 08:24:52;;;;;;;32.13;30.20;;;8.70;99.90;;;;;;4894418;29;20451;-75
2023/03/26 08:27:23;;;;;;;31.77;29.53;;;8.60;99.90;;;;;;4895135;29;20486;-76
2023/03/26 08:29:56;;;;;;;30.63;28.93;;;8.60;99.90;;;;;;4878222;29;21016;-75
2023/03/26 08:32:24;;;;;;;30.43;28.77;;;8.70;99.90;;;;;;4878527;29;20547;-75
2023/03/26 08:34:51;;;;;;;30.93;29.33;;;8.70;99.90;;;;;;4878533;29;20471;-74
2023/03/26 08:37:18;;;;;;;31.53;29.40;;;8.80;99.90;;;;;;4878134;29;20488;-74
2023/03/26 08:39:46;;;;;;;30.80;29.20;;;8.80;99.90;;;;;;4878125;29;20933;-75
2023/03/26 08:42:45;;;;;;;30.87;28.87;;;8.70;99.90;;;;;;4878055;29;21016;-74
2023/03/26 08:45:41;;;;;;;30.63;29.03;;;8.80;99.90;;;;;;4878024;29;20456;-74
2023/03/26 08:48:44;;;;;;;30.93;29.40;;;8.80;99.90;;;;;;4878113;29;21031;-75
2023/03/26 08:51:35;;;;;;;29.90;28.17;;;8.80;99.90;;;;;;4878032;29;20495;-75
2023/03/26 08:54:26;;;;;;;31.50;29.90;;;8.80;99.90;;;;;;4877984;29;20467;-75
2023/03/26 08:57:06;;;;;;;30.00;28.50;;;8.90;99.90;;;;;;4878002;29;20531;-75
2023/03/26 08:59:49;;;;;;;31.20;29.30;;;9.10;99.90;;;;;;4894856;29;20451;-75
2023/03/26 09:02:46;;;;;;;28.73;27.27;;;9.20;99.90;;;;;;4896499;29;20976;-76
2023/03/26 09:06:00;;;;;;;28.80;27.20;;;9.30;99.90;;;;;;4896467;29;20447;-76
2023/03/26 09:09:15;;;;;;;27.17;25.77;;;9.40;99.90;;;;;;4896516;29;20820;-77
2023/03/26 09:12:07;;;;;;;26.60;25.20;;;9.60;99.90;;;;;;4866951;29;20459;-78
2023/03/26 09:15:09;;;;;;;25.60;24.03;;;9.70;99.90;;;;;;4896408;29;20489;-77
2023/03/26 09:18:19;;;;;;;21.80;20.70;;;10.20;99.90;;;;;;4896563;29;20522;-80
2023/03/26 09:21:24;;;;;;;20.50;19.00;;;10.80;99.90;;;;;;4896644;29;20462;-81
2023/03/26 09:24:05;;;;;;;19.93;18.43;;;11.10;99.90;;;;;;4895855;29;20498;-80
2023/03/26 09:26:44;;;;;;;17.30;16.40;;;11.00;99.90;;;;;;4897019;29;20466;-79
2023/03/26 09:29:56;;;;;;;15.27;14.00;;;11.30;99.90;;;;;;4895655;29;20548;-78
2023/03/26 09:32:54;;;;;;;14.80;14.20;;;11.80;99.90;;;;;;4895931;29;20455;-76
2023/03/26 09:35:50;;;;;;;16.63;15.63;;;12.00;99.90;;;;;;4895631;29;20459;-76
2023/03/26 09:38:34;;;;;;;15.10;14.03;;;12.10;99.90;;;;;;4887131;29;20455;-76
2023/03/26 09:41:08;;;;;;;11.93;11.30;;;12.20;99.90;;;;;;4895407;29;20874;-77
2023/03/26 09:44:24;;;;;;;10.90;10.50;;;12.60;99.90;;;;;;4895577;29;20977;-77
2023/03/26 09:47:09;;;;;;;11.10;10.67;;;13.20;99.90;;;;;;4855675;29;20469;-78
2023/03/26 09:49:45;;;;;;;9.00;8.70;;;14.40;99.90;;;;;;4850320;29;20532;-76
2023/03/26 09:52:51;;;;;;;9.37;8.90;;;15.40;99.90;;;;;;4884071;29;21088;-76
2023/03/26 09:55:27;;;;;;;9.73;9.13;;;17.10;99.90;;;;;;4884177;29;21157;-76
2023/03/26 09:58:13;;;;;;;9.67;9.30;;;17.40;99.90;;;;;;4894847;29;20447;-76
2023/03/26 10:00:47;;;;;;;10.70;10.00;;;17.30;99.90;;;;;;4893225;29;20455;-77
2023/03/26 10:03:26;;;;;;;9.90;9.50;;;17.30;99.90;;;;;;4893284;29;20451;-78
2023/03/26 10:06:05;;;;;;;10.57;10.07;;;18.20;99.90;;;;;;4895062;29;20469;-77
2023/03/26 10:08:57;;;;;;;10.30;10.00;;;18.60;99.90;;;;;;4895157;29;20487;-79
2023/03/26 10:11:32;;;;;;;10.83;10.13;;;18.40;99.90;;;;;;4894931;29;20521;-78
2023/03/26 10:14:08;;;;;;;9.40;9.00;;;17.10;99.90;;;;;;4894722;29;20451;-80
2023/03/26 10:16:47;;;;;;;9.97;9.47;;;16.50;99.40;;;;;;4895135;29;20451;-80
2023/03/26 10:19:36;;;;;;;9.33;9.00;;;16.00;99.90;;;;;;4894687;29;20482;-81
2023/03/26 10:22:14;;;;;;;8.97;8.67;;;16.00;99.90;;;;;;4894838;29;20547;-80
2023/03/26 10:24:58;;;;;;;9.17;8.70;;;15.80;99.90;;;;;;4894568;29;20470;-81
2023/03/26 10:27:38;;;;;;;10.00;9.60;;;15.80;99.90;;;;;;4894880;29;20459;-82
2023/03/26 10:30:29;;;;;;;8.43;8.13;;;15.40;99.90;;;;;;4895020;29;20494;-83
2023/03/26 10:33:05;;;;;;;9.30;8.83;;;14.80;99.90;;;;;;4895402;29;20507;-82
2023/03/26 10:35:45;;;;;;;9.50;9.10;;;14.90;99.90;;;;;;4902924;29;20455;-81
2023/03/26 10:38:21;;;;;;;8.30;7.90;;;15.00;99.90;;;;;;4902805;29;20455;-82
2023/03/26 10:41:03;;;;;;;9.53;9.03;;;15.00;99.90;;;;;;4902990;29;20446;-83
2023/03/26 10:43:59;;;;;;;9.67;9.30;;;14.90;99.90;;;;;;4904127;29;20473;-80
2023/03/26 10:46:48;;;;;;;9.20;8.90;;;14.70;99.90;;;;;;4901964;29;20991;-81
2023/03/26 10:49:41;;;;;;;9.40;9.00;;;15.60;99.90;;;;;;4900134;29;20479;-83
2023/03/26 10:52:11;;;;;;;9.13;8.73;;;16.30;99.80;;;;;;4894550;29;20967;-77
2023/03/26 10:54:49;;;;;;;9.60;9.30;;;16.70;99.20;;;;;;4894508;29;20466;-78
2023/03/26 10:57:28;;;;;;;9.40;9.00;;;16.90;97.00;;;;;;4899435;29;20469;-82
2023/03/26 10:59:57;;;;;;;9.30;8.93;;;17.70;93.40;;;;;;4904441;29;20927;-82
2023/03/26 11:02:29;;;;;;;9.20;8.70;;;18.20;93.20;;;;;;4904252;29;20455;-82
2023/03/26 11:05:17;;;;;;;8.87;8.57;;;18.10;90.80;;;;;;4894212;29;20463;-81
2023/03/26 11:07:52;;;;;;;9.50;9.10;;;18.00;90.10;;;;;;4902623;29;20447;-81
2023/03/26 11:10:31;;;;;;;9.00;8.70;;;19.10;88.20;;;;;;4900113;29;20493;-80
2023/03/26 11:13:06;;;;;;;8.90;8.60;;;19.90;81.20;;;;;;4901381;29;20455;-79
2023/03/26 11:15:38;;;;;;;9.30;9.00;;;19.70;78.00;;;;;;4901532;29;20458;-78
2023/03/26 11:18:13;;;;;;;9.90;9.50;;;20.30;79.00;;;;;;4902166;29;20865;-76
2023/03/26 11:20:46;;;;;;;9.13;8.83;;;20.40;72.90;;;;;;4899405;29;20819;-75
2023/03/26 11:23:28;;;;;;;8.83;8.53;;;19.30;74.60;;;;;;4902413;29;21231;-76
2023/03/26 11:26:10;;;;;;;9.70;9.30;;;18.60;77.00;;;;;;4898947;29;20455;-77
2023/03/26 11:28:52;;;;;;;9.40;8.90;;;18.40;76.10;;;;;;4900345;29;20443;-76
2023/03/26 11:31:27;;;;;;;9.20;8.80;;;19.50;75.60;;;;;;4900988;29;21032;-77
2023/03/26 11:33:58;;;;;;;9.20;8.83;;;20.80;72.20;;;;;;4902509;29;20469;-76
2023/03/26 11:36:30;;;;;;;9.10;8.80;;;20.80;70.30;;;;;;4902960;29;20486;-76
2023/03/26 11:39:03;;;;;;;8.73;8.43;;;20.80;70.00;;;;;;4900513;29;20459;-76
2023/03/26 11:41:30;;;;;;;9.57;9.27;;;20.30;72.90;;;;;;4902247;29;20522;-76
2023/03/26 11:44:01;;;;;;;10.03;9.50;;;20.60;72.00;;;;;;4903763;29;20478;-79
2023/03/26 11:46:28;;;;;;;10.17;9.60;;;21.30;72.00;;;;;;4904213;29;20455;-77
2023/03/26 11:48:58;;;;;;;9.70;9.40;;;22.70;68.60;;;;;;4899604;29;20491;-78
2023/03/26 11:51:30;;;;;;;9.90;9.50;;;22.10;64.40;;;;;;4902807;29;20541;-78
2023/03/26 11:53:58;;;;;;;9.50;9.20;;;22.30;66.10;;;;;;4900260;29;20459;-78
2023/03/26 11:56:29;;;;;;;9.43;9.10;;;22.10;61.30;;;;;;4902777;29;20530;-78
2023/03/26 11:59:01;;;;;;;9.40;9.00;;;21.20;60.60;;;;;;4900413;29;20970;-78
2023/03/26 12:01:40;;;;;;;9.10;8.80;;;20.50;61.60;;;;;;4905862;29;20457;-79
2023/03/26 12:04:12;;;;;;;9.37;8.90;;;19.30;64.40;;;;;;4905972;29;20459;-78
2023/03/26 12:06:50;;;;;;;9.73;9.07;;;18.90;68.00;;;;;;4902923;29;20545;-78
2023/03/26 12:09:19;;;;;;;8.70;8.40;;;19.40;67.50;;;;;;4903334;29;20451;-76
2023/03/26 12:11:47;;;;;;;8.80;8.40;;;18.50;64.80;;;;;;4905966;29;21014;-78
2023/03/26 12:14:18;;;;;;;8.60;8.30;;;18.10;69.50;;;;;;4906912;29;20824;-77
2023/03/26 12:17:02;;;;;;;8.60;8.30;;;17.90;70.10;;;;;;4906231;29;20496;-76
2023/03/26 12:19:38;;;;;;;8.70;8.20;;;17.80;68.30;;;;;;4906065;29;20455;-76
2023/03/26 12:22:05;;;;;;;9.00;8.60;;;17.60;69.40;;;;;;4905237;29;20462;-78
2023/03/26 12:24:36;;;;;;;8.70;8.40;;;17.20;68.80;;;;;;4904806;29;20974;-78
2023/03/26 12:27:21;;;;;;;8.87;8.57;;;17.20;76.70;;;;;;4906200;29;20493;-78
2023/03/26 12:29:51;;;;;;;8.57;8.27;;;16.90;84.70;;;;;;4898381;29;20875;-78
2023/03/26 12:32:18;;;;;;;10.23;9.80;;;17.60;85.20;;;;;;4897011;29;20487;-80
2023/03/26 12:34:45;;;;;;;9.40;9.00;;;18.70;80.00;;;;;;4896966;29;20466;-79
2023/03/26 12:37:35;;;;;;;9.03;8.63;;;19.40;80.40;;;;;;4896781;29;20463;-79
2023/03/26 12:40:10;;;;;;;9.90;9.50;;;20.30;76.80;;;;;;4896811;29;20455;-79
2023/03/26 12:42:42;;;;;;;10.00;9.57;;;21.50;74.40;;;;;;4896759;29;20823;-81
2023/03/26 12:45:14;;;;;;;9.90;9.40;;;20.60;71.10;;;;;;4897058;29;20455;-80
2023/03/26 12:47:41;;;;;;;9.73;9.23;;;19.60;76.20;;;;;;4895850;29;20479;-81
2023/03/26 12:50:13;;;;;;;8.83;8.53;;;18.60;76.10;;;;;;4895966;29;20835;-80
2023/03/26 12:53:02;;;;;;;8.77;8.37;;;17.50;81.00;;;;;;4896857;29;20455;-80
2023/03/26 12:55:47;;;;;;;8.73;8.43;;;16.80;86.50;;;;;;4896714;29;20556;-79
2023/03/26 12:58:42;;;;;;;8.70;8.30;;;16.50;91.20;;;;;;4896440;29;20986;-80
2023/03/26 13:01:19;;;;;;;8.73;8.33;;;16.30;92.60;;;;;;4897242;29;20443;-79
2023/03/26 13:04:12;;;;;;;8.70;8.30;;;16.20;92.70;;;;;;4896804;29;20447;-80
2023/03/26 13:06:44;;;;;;;8.60;8.23;;;16.80;92.20;;;;;;4896704;29;20893;-81
2023/03/26 13:09:36;;;;;;;9.00;8.60;;;17.90;89.70;;;;;;4896193;29;20486;-80